Time;durP1;ratioP1;P1;durP2;ratioP2;P2;SDS_P1;SDS_P2;PMS_P1;PMS_P2;Temp;Humidity;BMP_temperature;BMP_pressure;BME280_temperature;BME280_humidity;BME280_pressure;Samples;Min_cycle;Max_cycle;Signal;HPM_P1;HPM_P2
2022/09/01 00:01:27;;;;;;;;;;;;;;;14.85;100.00;102217.09;2614759;31;20347;-51
2022/09/01 00:03:58;;;;;;;;;;;;;;;14.84;100.00;102216.25;2615215;36;19946;-51
2022/09/01 00:06:26;;;;;;;;;;;;;;;14.75;100.00;102219.72;2615543;36;20294;-51
2022/09/01 00:08:56;;;;;;;;;;;;;;;14.68;100.00;102218.53;2615509;36;19962;-52
2022/09/01 00:11:27;;;;;;;;;;;;;;;14.61;100.00;102220.00;2615543;36;19939;-53
2022/09/01 00:13:57;;;;;;;;;;;;;;;14.59;100.00;102214.72;2606110;31;19950;-54
2022/09/01 00:16:25;;;;;;;;;;;;;;;14.61;100.00;102215.47;2614856;36;19955;-55
2022/09/01 00:18:54;;;;;;;;;;;;;;;14.57;100.00;102211.25;2614728;36;19966;-53
2022/09/01 00:21:25;;;;;;;;;;;;;;;14.46;100.00;102211.31;2615040;36;20335;-51
2022/09/01 00:23:54;;;;;;;;;;;;;;;14.47;100.00;102210.31;2614081;36;20419;-51
2022/09/01 00:26:22;;;;;;;;;;;;;;;14.53;100.00;102212.50;2614786;31;19954;-50
2022/09/01 00:28:52;;;;;;;;;;;;;;;14.43;100.00;102216.97;2614776;36;19951;-49
2022/09/01 00:31:21;;;;;;;;;;;;;;;14.51;100.00;102214.50;2613955;36;19946;-51
2022/09/01 00:33:50;;;;;;;;;;;;;;;14.49;100.00;102216.47;2614196;36;19947;-53
2022/09/01 00:36:19;;;;;;;;;;;;;;;14.35;100.00;102210.38;2615207;36;19973;-49
2022/09/01 00:38:47;;;;;;;;;;;;;;;14.30;100.00;102209.03;2615092;36;19974;-52
2022/09/01 00:41:17;;;;;;;;;;;;;;;14.29;100.00;102210.00;2615269;36;19977;-53
2022/09/01 00:43:47;;;;;;;;;;;;;;;14.28;100.00;102216.41;2615262;36;19950;-50
2022/09/01 00:46:19;;;;;;;;;;;;;;;14.26;100.00;102204.84;2614447;36;19955;-50
2022/09/01 00:48:48;;;;;;;;;;;;;;;14.26;100.00;102207.56;2615890;36;20450;-53
2022/09/01 00:51:17;;;;;;;;;;;;;;;14.24;100.00;102210.41;2615269;36;19954;-54
2022/09/01 00:53:46;;;;;;;;;;;;;;;14.24;100.00;102201.44;2614913;36;20006;-55
2022/09/01 00:56:15;;;;;;;;;;;;;;;14.28;100.00;102203.75;2615113;31;19939;-49
2022/09/01 00:58:43;;;;;;;;;;;;;;;14.22;100.00;102200.66;2614764;36;19951;-54
2022/09/01 01:01:12;;;;;;;;;;;;;;;14.21;100.00;102197.13;2614948;36;19950;-54
2022/09/01 01:03:43;;;;;;;;;;;;;;;14.11;100.00;102190.75;2615020;36;19942;-57
2022/09/01 01:06:12;;;;;;;;;;;;;;;13.96;100.00;102193.72;2614381;36;20103;-55
2022/09/01 01:08:48;;;;;;;;;;;;;;;14.10;100.00;102189.00;2614883;36;20030;-53
2022/09/01 01:11:17;;;;;;;;;;;;;;;14.05;100.00;102188.53;2615402;36;19957;-49
2022/09/01 01:13:50;;;;;;;;;;;;;;;14.06;100.00;102183.00;2615161;36;20571;-51
2022/09/01 01:16:19;;;;;;;;;;;;;;;13.94;100.00;102179.47;2615254;36;20363;-53
2022/09/01 01:18:49;;;;;;;;;;;;;;;14.00;100.00;102181.66;2614542;36;19946;-53
2022/09/01 01:24:05;;;;;;;;;;;;;;;13.86;100.00;102176.50;2614474;31;19946;-51
2022/09/01 01:26:36;;;;;;;;;;;;;;;13.81;100.00;102182.31;2614493;36;19953;-53
2022/09/01 01:29:07;;;;;;;;;;;;;;;13.77;100.00;102177.25;2614926;36;19950;-53
2022/09/01 01:31:35;;;;;;;;;;;;;;;13.82;100.00;102175.91;2614579;36;19973;-55
2022/09/01 01:34:06;;;;;;;;;;;;;;;13.81;100.00;102176.88;2614571;36;19951;-53
2022/09/01 01:36:35;;;;;;;;;;;;;;;13.84;100.00;102179.34;2615518;36;19956;-52
2022/09/01 01:39:05;;;;;;;;;;;;;;;13.85;100.00;102177.47;2614992;36;19954;-53
2022/09/01 01:41:34;;;;;;;;;;;;;;;13.78;100.00;102173.56;2614404;36;19977;-50
2022/09/01 01:44:05;;;;;;;;;;;;;;;13.70;100.00;102181.44;2615764;36;20370;-50
2022/09/01 01:46:34;;;;;;;;;;;;;;;13.53;100.00;102178.28;2615384;36;19954;-50
2022/09/01 01:49:03;;;;;;;;;;;;;;;13.52;100.00;102173.84;2613087;36;19957;-50
2022/09/01 01:51:31;;;;;;;;;;;;;;;13.46;100.00;102174.34;2608048;36;20034;-50
2022/09/01 01:54:01;;;;;;;;;;;;;;;13.51;100.00;102177.50;2614163;36;20018;-51
2022/09/01 01:56:30;;;;;;;;;;;;;;;13.54;100.00;102174.56;2615964;31;19953;-51
2022/09/01 01:59:00;;;;;;;;;;;;;;;13.47;100.00;102176.03;2615454;36;19981;-54
2022/09/01 02:01:31;;;;;;;;;;;;;;;13.46;100.00;102182.44;2614985;36;20748;-51
2022/09/01 02:04:00;;;;;;;;;;;;;;;13.41;100.00;102184.63;2614912;36;19974;-53
2022/09/01 02:06:29;;;;;;;;;;;;;;;13.41;100.00;102174.69;2615022;36;19957;-51
2022/09/01 02:09:01;;;;;;;;;;;;;;;13.49;100.00;102183.03;2615074;36;19967;-55
2022/09/01 02:11:32;;;;;;;;;;;;;;;13.36;100.00;102182.31;2615585;31;20042;-55
2022/09/01 02:14:01;;;;;;;;;;;;;;;13.33;100.00;102190.63;2615384;36;20022;-57
2022/09/01 02:16:33;;;;;;;;;;;;;;;13.38;100.00;102188.44;2614877;31;19947;-59
2022/09/01 02:19:01;;;;;;;;;;;;;;;13.37;100.00;102185.84;2615725;36;19947;-55
2022/09/01 02:21:30;;;;;;;;;;;;;;;13.31;100.00;102182.66;2615612;36;20027;-52
2022/09/01 02:24:01;;;;;;;;;;;;;;;13.29;100.00;102184.63;2615863;36;19947;-50
2022/09/01 02:34:13;;;;;;;;;;;;;;;13.30;100.00;102190.88;2613898;36;19954;-53
2022/09/01 02:36:46;;;;;;;;;;;;;;;13.34;100.00;102192.41;2614256;36;19950;-55
2022/09/01 02:39:14;;;;;;;;;;;;;;;13.26;100.00;102190.25;2614916;36;20400;-52
2022/09/01 02:41:42;;;;;;;;;;;;;;;13.27;100.00;102181.16;2613837;36;19958;-58
2022/09/01 02:44:13;;;;;;;;;;;;;;;13.33;100.00;102191.47;2615211;31;20343;-51
2022/09/01 02:46:43;;;;;;;;;;;;;;;13.23;100.00;102187.78;2613511;36;19946;-53
2022/09/01 02:49:18;;;;;;;;;;;;;;;13.09;100.00;102186.19;2613057;36;20433;-51
2022/09/01 02:51:48;;;;;;;;;;;;;;;13.09;100.00;102180.78;2614525;36;19954;-51
2022/09/01 02:54:18;;;;;;;;;;;;;;;13.12;100.00;102185.09;2616456;36;20352;-55
2022/09/01 02:56:47;;;;;;;;;;;;;;;13.04;100.00;102182.97;2616429;36;20456;-54
2022/09/01 02:59:15;;;;;;;;;;;;;;;13.05;100.00;102181.97;2616966;36;20458;-52
2022/09/01 03:01:46;;;;;;;;;;;;;;;13.03;100.00;102183.06;2615881;36;19977;-54
2022/09/01 03:04:17;;;;;;;;;;;;;;;13.04;100.00;102174.00;2616405;31;19950;-54
2022/09/01 03:06:45;;;;;;;;;;;;;;;12.96;100.00;102171.91;2615706;36;20042;-53
2022/09/01 03:09:15;;;;;;;;;;;;;;;12.91;100.00;102174.97;2616650;36;19999;-50
2022/09/01 03:11:44;;;;;;;;;;;;;;;12.87;100.00;102173.47;2616461;36;19961;-50
2022/09/01 03:14:12;;;;;;;;;;;;;;;12.87;100.00;102173.47;2616644;36;20418;-56
2022/09/01 03:16:40;;;;;;;;;;;;;;;12.81;100.00;102187.47;2615794;36;19950;-51
2022/09/01 03:19:10;;;;;;;;;;;;;;;12.73;100.00;102181.78;2617083;31;20421;-54
2022/09/01 03:21:42;;;;;;;;;;;;;;;12.71;100.00;102175.66;2616339;36;19950;-52
2022/09/01 03:24:13;;;;;;;;;;;;;;;12.68;100.00;102175.88;2616213;36;19951;-55
2022/09/01 03:26:42;;;;;;;;;;;;;;;12.62;100.00;102175.34;2616667;36;19951;-50
2022/09/01 03:29:10;;;;;;;;;;;;;;;12.64;100.00;102174.38;2614359;36;19947;-50
2022/09/01 03:31:39;;;;;;;;;;;;;;;12.60;100.00;102176.44;2612804;36;19974;-49
2022/09/01 03:34:09;;;;;;;;;;;;;;;12.56;100.00;102180.38;2616876;31;19950;-51
2022/09/01 03:36:38;;;;;;;;;;;;;;;12.70;100.00;102176.63;2614186;36;19951;-51
2022/09/01 03:39:09;;;;;;;;;;;;;;;12.55;100.00;102173.25;2616907;31;20383;-49
2022/09/01 03:41:38;;;;;;;;;;;;;;;12.45;100.00;102173.06;2616404;36;20051;-53
2022/09/01 03:44:09;;;;;;;;;;;;;;;12.34;100.00;102165.78;2616030;31;19962;-57
2022/09/01 03:46:39;;;;;;;;;;;;;;;12.30;100.00;102172.41;2616303;36;20321;-57
2022/09/01 03:49:14;;;;;;;;;;;;;;;12.27;100.00;102169.94;2616212;31;19948;-51
2022/09/01 03:51:43;;;;;;;;;;;;;;;12.21;100.00;102165.84;2607495;36;19955;-59
2022/09/01 03:54:13;;;;;;;;;;;;;;;12.19;100.00;102162.41;2616126;36;19960;-55
2022/09/01 03:56:44;;;;;;;;;;;;;;;12.19;100.00;102166.94;2616172;36;19939;-52
2022/09/01 03:59:15;;;;;;;;;;;;;;;12.15;100.00;102163.63;2616559;36;19962;-51
2022/09/01 04:01:44;;;;;;;;;;;;;;;12.16;100.00;102167.16;2615378;36;20046;-50
2022/09/01 04:04:14;;;;;;;;;;;;;;;12.09;100.00;102162.22;2616036;36;20352;-53
2022/09/01 04:06:42;;;;;;;;;;;;;;;12.00;100.00;102159.34;2615017;36;20038;-55
2022/09/01 04:09:10;;;;;;;;;;;;;;;11.94;100.00;102157.09;2614695;36;19955;-51
2022/09/01 04:11:44;;;;;;;;;;;;;;;12.01;100.00;102159.22;2615012;36;19958;-51
2022/09/01 04:14:13;;;;;;;;;;;;;;;11.99;100.00;102165.72;2614239;31;19947;-57
2022/09/01 04:19:24;;;;;;;;;;;;;;;12.03;100.00;102160.00;2615235;31;19958;-49
2022/09/01 04:21:53;;;;;;;;;;;;;;;12.00;100.00;102157.53;2614320;36;19946;-51
2022/09/01 04:24:22;;;;;;;;;;;;;;;12.04;100.00;102153.63;2614403;36;19950;-52
2022/09/01 04:26:54;;;;;;;;;;;;;;;12.09;100.00;102156.81;2614950;36;19957;-52
2022/09/01 04:29:26;;;;;;;;;;;;;;;12.08;100.00;102159.66;2614844;36;19950;-53
2022/09/01 04:31:54;;;;;;;;;;;;;;;11.95;100.00;102162.38;2614702;36;19946;-53
2022/09/01 04:34:23;;;;;;;;;;;;;;;12.17;100.00;102163.50;2614918;36;20408;-50
2022/09/01 04:36:52;;;;;;;;;;;;;;;12.26;100.00;102160.97;2615263;36;19983;-54
2022/09/01 04:39:20;;;;;;;;;;;;;;;12.17;100.00;102158.94;2615222;36;19954;-56
2022/09/01 04:41:54;;;;;;;;;;;;;;;12.13;100.00;102146.69;2616704;36;19950;-54
2022/09/01 04:44:24;;;;;;;;;;;;;;;12.04;100.00;102152.75;2615575;36;20419;-51
2022/09/01 04:46:52;;;;;;;;;;;;;;;12.07;100.00;102142.59;2614610;36;19950;-53
2022/09/01 04:49:25;;;;;;;;;;;;;;;12.21;100.00;102151.50;2615842;36;20320;-51
2022/09/01 04:51:54;;;;;;;;;;;;;;;12.22;100.00;102140.59;2614325;36;20424;-54
2022/09/01 04:54:23;;;;;;;;;;;;;;;12.19;100.00;102146.22;2614544;32;19959;-52
2022/09/01 04:56:54;;;;;;;;;;;;;;;12.05;100.00;102149.94;2615406;36;19964;-53
2022/09/01 04:59:23;;;;;;;;;;;;;;;12.07;100.00;102157.91;2615266;36;19954;-56
2022/09/01 05:01:54;;;;;;;;;;;;;;;12.05;100.00;102149.94;2613235;36;19943;-51
2022/09/01 05:04:23;;;;;;;;;;;;;;;12.04;100.00;102159.03;2613325;36;19954;-53
2022/09/01 05:06:54;;;;;;;;;;;;;;;12.07;100.00;102157.91;2614304;36;20062;-53
2022/09/01 05:09:23;;;;;;;;;;;;;;;11.99;100.00;102160.34;2614814;36;19958;-51
2022/09/01 05:11:55;;;;;;;;;;;;;;;11.96;100.00;102157.88;2614854;36;19950;-51
2022/09/01 05:14:23;;;;;;;;;;;;;;;12.11;100.00;102158.56;2614580;36;20026;-55
2022/09/01 05:16:52;;;;;;;;;;;;;;;12.09;100.00;102166.78;2614299;36;19969;-51
2022/09/01 05:19:23;;;;;;;;;;;;;;;12.05;100.00;102170.66;2614190;36;19973;-50
2022/09/01 05:21:53;;;;;;;;;;;;;;;12.07;100.00;102168.72;2611131;36;19950;-56
2022/09/01 05:24:25;;;;;;;;;;;;;;;12.02;100.00;102177.16;2612409;36;20407;-51
2022/09/01 05:26:56;;;;;;;;;;;;;;;12.11;100.00;102172.91;2613599;36;19957;-56
2022/09/01 05:29:26;;;;;;;;;;;;;;;12.13;100.00;102176.38;2613717;36;19970;-59
2022/09/01 05:31:54;;;;;;;;;;;;;;;12.07;100.00;102169.59;2605241;36;19953;-54
2022/09/01 05:34:25;;;;;;;;;;;;;;;12.11;100.00;102170.22;2614947;31;20405;-53
2022/09/01 05:36:53;;;;;;;;;;;;;;;12.13;100.00;102168.28;2614956;31;19947;-53
2022/09/01 05:39:22;;;;;;;;;;;;;;;12.29;100.00;102169.81;2615269;36;19955;-51
2022/09/01 05:41:50;;;;;;;;;;;;;;;12.36;100.00;102171.94;2613230;31;19966;-52
2022/09/01 05:44:21;;;;;;;;;;;;;;;12.35;100.00;102169.34;2611428;36;20414;-53
2022/09/01 05:46:51;;;;;;;;;;;;;;;12.39;100.00;102169.00;2611679;36;20348;-55
2022/09/01 05:49:19;;;;;;;;;;;;;;;12.44;100.00;102163.28;2607557;36;20641;-54
2022/09/01 05:51:50;;;;;;;;;;;;;;;12.47;100.00;102173.84;2606157;36;20428;-52
2022/09/01 05:54:20;;;;;;;;;;;;;;;12.45;100.00;102173.06;2613165;31;20444;-50
2022/09/01 05:56:48;;;;;;;;;;;;;;;12.60;100.00;102171.03;2614706;31;20618;-52
2022/09/01 05:59:19;;;;;;;;;;;;;;;12.72;100.00;102180.03;2612705;36;19950;-51
2022/09/01 06:01:52;;;;;;;;;;;;;;;12.87;100.00;102178.88;2614554;36;20428;-53
2022/09/01 06:04:20;;;;;;;;;;;;;;;12.89;100.00;102176.06;2614186;36;19947;-58
2022/09/01 06:06:49;;;;;;;;;;;;;;;12.91;100.00;102174.09;2612885;36;19946;-52
2022/09/01 06:09:22;;;;;;;;;;;;;;;13.06;100.00;102172.91;2612139;36;19985;-50
2022/09/01 06:11:50;;;;;;;;;;;;;;;13.14;100.00;102178.56;2614010;36;20416;-53
2022/09/01 06:14:19;;;;;;;;;;;;;;;13.14;100.00;102175.00;2611816;36;19946;-55
2022/09/01 06:16:53;;;;;;;;;;;;;;;13.25;100.00;102175.03;2611446;36;19954;-51
2022/09/01 06:19:21;;;;;;;;;;;;;;;13.45;100.00;102172.59;2611280;31;19958;-52
2022/09/01 06:21:50;;;;;;;;;;;;;;;13.49;100.00;102171.38;2612128;36;19950;-51
2022/09/01 06:24:18;;;;;;;;;;;;;;;13.47;100.00;102176.03;2610545;36;19981;-57
2022/09/01 06:26:46;;;;;;;;;;;;;;;13.56;100.00;102175.31;2612238;36;19951;-51
2022/09/01 06:29:15;;;;;;;;;;;;;;;13.70;100.00;102176.88;2611891;36;19954;-57
2022/09/01 06:31:50;;;;;;;;;;;;;;;13.81;100.00;102173.34;2611087;36;19953;-52
2022/09/01 06:34:21;;;;;;;;;;;;;;;14.02;100.00;102176.97;2611818;36;20383;-54
2022/09/01 06:36:50;;;;;;;;;;;;;;;14.22;100.00;102173.59;2611516;36;20533;-55
2022/09/01 06:39:21;;;;;;;;;;;;;;;14.42;100.00;102166.50;2609706;36;19946;-51
2022/09/01 06:41:51;;;;;;;;;;;;;;;14.74;100.00;102171.06;2609547;36;19969;-58
2022/09/01 06:44:21;;;;;;;;;;;;;;;14.80;100.00;102178.69;2612731;36;19954;-53
2022/09/01 06:46:49;;;;;;;;;;;;;;;14.78;100.00;102172.53;2610036;36;19954;-53
2022/09/01 06:49:17;;;;;;;;;;;;;;;14.89;100.00;102176.03;2606528;31;19985;-54
2022/09/01 06:51:50;;;;;;;;;;;;;;;15.05;100.00;102175.56;2599352;31;19950;-53
2022/09/01 06:54:18;;;;;;;;;;;;;;;15.32;100.00;102176.00;2612023;36;20673;-52
2022/09/01 06:56:46;;;;;;;;;;;;;;;15.36;100.00;102182.88;2604518;31;19946;-50
2022/09/01 06:59:14;;;;;;;;;;;;;;;15.48;100.00;102170.09;2609812;36;19974;-50
2022/09/01 07:01:43;;;;;;;;;;;;;;;15.71;100.00;102177.03;2611560;36;19954;-51
2022/09/01 07:04:11;;;;;;;;;;;;;;;15.76;100.00;102184.75;2609659;31;19951;-54
2022/09/01 07:06:41;;;;;;;;;;;;;;;16.04;100.00;102183.16;2609855;36;19951;-51
2022/09/01 07:09:12;;;;;;;;;;;;;;;16.11;100.00;102187.03;2610234;36;20070;-56
2022/09/01 07:11:40;;;;;;;;;;;;;;;16.29;100.00;102183.63;2608442;36;19947;-55
2022/09/01 07:14:08;;;;;;;;;;;;;;;16.48;100.00;102187.38;2607727;31;20443;-53
2022/09/01 07:16:39;;;;;;;;;;;;;;;16.54;100.00;102184.06;2608315;36;19951;-53
2022/09/01 07:19:12;;;;;;;;;;;;;;;16.63;100.00;102181.31;2607708;36;19946;-54
2022/09/01 07:21:40;;;;;;;;;;;;;;;16.98;100.00;102182.63;2607044;36;19977;-54
2022/09/01 07:24:08;;;;;;;;;;;;;;;17.03;100.00;102186.75;2606981;36;20375;-55
2022/09/01 07:26:40;;;;;;;;;;;;;;;17.25;100.00;102178.25;2608755;36;19947;-53
2022/09/01 07:29:08;;;;;;;;;;;;;;;17.37;100.00;102175.38;2606998;36;19962;-53
2022/09/01 07:31:39;;;;;;;;;;;;;;;17.44;100.00;102177.31;2606588;36;20340;-49
2022/09/01 07:34:12;;;;;;;;;;;;;;;17.77;100.00;102174.16;2605789;36;19989;-50
2022/09/01 07:36:41;;;;;;;;;;;;;;;17.93;100.00;102170.81;2606537;36;20353;-50
2022/09/01 07:39:11;;;;;;;;;;;;;;;18.15;100.00;102169.53;2608020;36;19946;-55
2022/09/01 07:41:43;;;;;;;;;;;;;;;18.19;100.00;102170.94;2608205;36;19951;-53
2022/09/01 07:44:13;;;;;;;;;;;;;;;18.47;100.00;102173.59;2607108;36;19981;-53
2022/09/01 07:46:42;;;;;;;;;;;;;;;18.46;100.00;102171.88;2603346;36;19950;-51
2022/09/01 07:49:11;;;;;;;;;;;;;;;18.72;100.00;102174.69;2603790;36;19958;-55
2022/09/01 07:51:39;;;;;;;;;;;;;;;18.93;100.00;102177.06;2605792;36;19962;-54
2022/09/01 07:54:09;;;;;;;;;;;;;;;19.05;100.00;102170.38;2606494;36;19950;-52
2022/09/01 07:56:39;;;;;;;;;;;;;;;19.04;100.00;102176.81;2600858;36;19959;-53
2022/09/01 07:59:10;;;;;;;;;;;;;;;19.33;100.00;102175.66;2600392;36;19950;-51
2022/09/01 08:01:38;;;;;;;;;;;;;;;19.46;100.00;102177.06;2607280;36;19950;-56
2022/09/01 08:04:06;;;;;;;;;;;;;;;19.48;100.00;102175.91;2607754;31;20100;-52
2022/09/01 08:06:37;;;;;;;;;;;;;;;19.57;100.00;102185.84;2610678;36;19985;-55
2022/09/01 08:09:05;;;;;;;;;;;;;;;20.00;100.00;102179.56;2611623;36;19947;-55
2022/09/01 08:11:34;;;;;;;;;;;;;;;20.20;100.00;102172.78;2611750;36;19946;-55
2022/09/01 08:14:02;;;;;;;;;;;;;;;20.07;100.00;102178.72;2610782;36;20027;-55
2022/09/01 08:16:33;;;;;;;;;;;;;;;20.30;100.00;102178.06;2623427;36;19950;-56
2022/09/01 08:19:01;;;;;;;;;;;;;;;20.51;100.00;102172.13;2613623;31;20459;-48
2022/09/01 08:21:30;;;;;;;;;;;;;;;20.72;100.00;102165.31;2611184;36;19954;-51
2022/09/01 08:23:58;;;;;;;;;;;;;;;20.82;100.00;102168.75;2610656;31;19951;-52
2022/09/01 08:26:27;;;;;;;;;;;;;;;20.79;100.00;102177.31;2611715;36;19955;-49
2022/09/01 08:28:56;;;;;;;;;;;;;;;20.84;98.29;102172.16;2610872;36;19970;-52
2022/09/01 08:31:26;;;;;;;;;;;;;;;20.96;90.44;102175.38;2610907;36;19973;-51
2022/09/01 08:33:57;;;;;;;;;;;;;;;21.12;86.43;102177.25;2610887;36;19951;-55
2022/09/01 08:36:25;;;;;;;;;;;;;;;21.14;92.94;102178.78;2611090;36;21642;-53
2022/09/01 08:38:53;;;;;;;;;;;;;;;21.30;83.67;102166.97;2610789;36;20075;-52
2022/09/01 08:41:28;;;;;;;;;;;;;;;21.45;80.37;102166.19;2611152;36;19987;-54
2022/09/01 08:44:02;;;;;;;;;;;;;;;21.70;80.83;102177.94;2611456;36;19950;-54
2022/09/01 08:46:33;;;;;;;;;;;;;;;21.80;92.20;102170.38;2610728;36;20030;-52
2022/09/01 08:49:08;;;;;;;;;;;;;;;21.86;76.82;102168.81;2609754;36;19947;-52
2022/09/01 08:51:38;;;;;;;;;;;;;;;21.80;68.22;102153.09;2610578;36;19950;-52
2022/09/01 08:54:12;;;;;;;;;;;;;;;21.86;73.71;102171.53;2611568;31;19958;-52
2022/09/01 08:56:40;;;;;;;;;;;;;;;22.02;70.60;102174.19;2610447;31;20432;-54
2022/09/01 08:59:10;;;;;;;;;;;;;;;22.06;71.35;102171.97;2604089;36;19985;-53
2022/09/01 09:01:43;;;;;;;;;;;;;;;22.15;69.49;102168.13;2612201;36;19946;-55
2022/09/01 09:04:23;;;;;;;;;;;;;;;22.11;66.99;102158.53;2603799;36;20317;-49
2022/09/01 09:06:56;;;;;;;;;;;;;;;22.20;66.90;102171.19;2610951;36;20436;-52
2022/09/01 09:09:31;;;;;;;;;;;;;;;22.17;66.51;102159.72;2611751;36;20041;-54
2022/09/01 09:12:09;;;;;;;;;;;;;;;22.30;61.92;102165.44;2610458;36;20042;-51
2022/09/01 09:14:43;;;;;;;;;;;;;;;22.24;65.30;102160.69;2627795;36;20572;-56
2022/09/01 09:17:12;;;;;;;;;;;;;;;22.46;61.63;102158.19;2611359;36;20268;-48
2022/09/01 09:19:44;;;;;;;;;;;;;;;22.66;62.10;102153.91;2611538;31;19951;-51
2022/09/01 09:22:13;;;;;;;;;;;;;;;22.80;61.30;102156.88;2611541;36;19958;-53
2022/09/01 09:24:49;;;;;;;;;;;;;;;22.75;61.86;102158.25;2610958;36;19953;-49
2022/09/01 09:27:23;;;;;;;;;;;;;;;22.74;61.34;102156.53;2610901;36;19946;-52
2022/09/01 09:29:52;;;;;;;;;;;;;;;22.83;65.16;102153.75;2610552;36;19974;-54
2022/09/01 09:32:21;;;;;;;;;;;;;;;22.70;61.71;102160.72;2611387;36;19947;-53
2022/09/01 09:34:52;;;;;;;;;;;;;;;22.72;61.65;102144.91;2610567;36;19967;-57
2022/09/01 09:37:28;;;;;;;;;;;;;;;22.89;60.91;102137.41;2611689;31;20437;-50
2022/09/01 09:40:20;;;;;;;;;;;;;;;23.07;60.67;102127.91;2610835;36;20093;-50
2022/09/01 09:43:02;;;;;;;;;;;;;;;23.29;59.48;102128.06;2609521;36;19993;-55
2022/09/01 09:45:32;;;;;;;;;;;;;;;23.41;58.31;102124.66;2610092;36;20362;-51
2022/09/01 09:48:00;;;;;;;;;;;;;;;23.56;60.38;102132.88;2610934;36;20455;-54
2022/09/01 09:50:33;;;;;;;;;;;;;;;23.42;58.29;102120.88;2610362;36;20433;-52
2022/09/01 09:53:15;;;;;;;;;;;;;;;23.60;57.99;102114.97;2610453;36;19954;-54
2022/09/01 09:55:55;;;;;;;;;;;;;;;23.74;53.14;102104.97;2610784;36;19950;-49
2022/09/01 09:58:26;;;;;;;;;;;;;;;23.74;56.02;102107.72;2610290;36;20463;-53
2022/09/01 10:01:05;;;;;;;;;;;;;;;23.67;56.46;102103.19;2610463;31;19985;-49
2022/09/01 10:03:37;;;;;;;;;;;;;;;23.67;54.42;102103.19;2605506;36;20001;-52
2022/09/01 10:06:11;;;;;;;;;;;;;;;23.75;52.92;102094.84;2603758;36;19938;-54
2022/09/01 10:08:43;;;;;;;;;;;;;;;24.00;53.30;102100.84;2609416;36;19975;-54
2022/09/01 10:11:12;;;;;;;;;;;;;;;24.14;54.49;102099.94;2611131;36;19957;-54
2022/09/01 10:13:40;;;;;;;;;;;;;;;24.35;54.04;102092.75;2611267;31;20491;-50
2022/09/01 10:16:10;;;;;;;;;;;;;;;24.27;52.33;102090.94;2610821;36;19947;-51
2022/09/01 10:18:40;;;;;;;;;;;;;;;24.35;52.75;102091.88;2611381;31;20411;-51
2022/09/01 10:21:15;;;;;;;;;;;;;;;24.54;52.38;102082.09;2611649;36;19962;-57
2022/09/01 10:23:43;;;;;;;;;;;;;;;24.48;51.54;102090.09;2611224;31;19954;-51
2022/09/01 10:26:13;;;;;;;;;;;;;;;24.52;52.48;102089.69;2613939;36;19954;-56
2022/09/01 10:28:44;;;;;;;;;;;;;;;24.63;48.96;102092.78;2610571;36;19958;-54
2022/09/01 10:31:12;;;;;;;;;;;;;;;24.58;49.45;102091.66;2612028;36;19959;-57
2022/09/01 10:33:40;;;;;;;;;;;;;;;25.00;50.39;102096.22;2613572;36;19955;-54
2022/09/01 10:36:11;;;;;;;;;;;;;;;24.94;47.58;102090.66;2609464;36;19989;-52
2022/09/01 10:38:39;;;;;;;;;;;;;;;24.81;48.75;102092.28;2608541;36;19978;-49
2022/09/01 10:41:10;;;;;;;;;;;;;;;24.83;50.85;102100.34;2610965;36;19950;-53
2022/09/01 10:43:40;;;;;;;;;;;;;;;24.89;45.59;102082.16;2609379;36;19958;-54
2022/09/01 10:46:26;;;;;;;;;;;;;;;24.83;44.28;102083.81;2611357;36;19951;-52
2022/09/01 10:48:55;;;;;;;;;;;;;;;24.94;47.97;102091.53;2610646;36;19951;-48
2022/09/01 10:51:38;;;;;;;;;;;;;;;25.06;45.54;102097.31;2611562;36;19978;-50
2022/09/01 10:54:09;;;;;;;;;;;;;;;25.18;44.72;102076.38;2611114;36;19974;-53
2022/09/01 10:56:39;;;;;;;;;;;;;;;25.06;45.01;102083.53;2611414;36;19953;-51
2022/09/01 10:59:09;;;;;;;;;;;;;;;25.23;45.11;102081.28;2610604;36;19975;-54
2022/09/01 11:01:52;;;;;;;;;;;;;;;25.16;42.51;102075.75;2611222;36;19958;-54
2022/09/01 11:04:21;;;;;;;;;;;;;;;25.11;46.72;102072.75;2610961;36;20466;-50
2022/09/01 11:07:07;;;;;;;;;;;;;;;25.12;47.14;102082.72;2605371;31;19951;-53
2022/09/01 11:09:40;;;;;;;;;;;;;;;25.16;47.92;102073.00;2603654;36;20411;-50
2022/09/01 11:12:26;;;;;;;;;;;;;;;25.28;43.89;102080.66;2611225;36;20363;-56
2022/09/01 11:14:55;;;;;;;;;;;;;;;25.16;45.61;102061.09;2611391;36;19957;-50
2022/09/01 11:17:25;;;;;;;;;;;;;;;25.62;48.29;102070.69;2613928;36;19979;-51
2022/09/01 11:19:58;;;;;;;;;;;;;;;25.22;46.16;102067.72;2611526;36;20443;-52
2022/09/01 11:22:28;;;;;;;;;;;;;;;24.89;46.95;102071.97;2611469;36;20434;-53
2022/09/01 11:25:13;;;;;;;;;;;;;;;25.38;50.96;102055.53;2612761;36;19950;-54
2022/09/01 11:27:56;;;;;;;;;;;;;;;25.69;47.58;102061.38;2611570;36;19977;-51
2022/09/01 11:30:25;;;;;;;;;;;;;;;25.98;48.04;102058.44;2611802;36;19954;-51
2022/09/01 11:32:58;;;;;;;;;;;;;;;26.22;45.76;102046.84;2611248;31;19943;-51
2022/09/01 11:35:29;;;;;;;;;;;;;;;25.80;44.83;102059.06;2611380;36;19951;-52
2022/09/01 11:37:58;;;;;;;;;;;;;;;25.93;44.52;102055.47;2611904;36;19974;-52
2022/09/01 11:40:31;;;;;;;;;;;;;;;26.10;45.88;102062.31;2611487;31;19954;-55
2022/09/01 11:43:00;;;;;;;;;;;;;;;26.12;49.31;102060.22;2611411;36;19985;-56
2022/09/01 11:45:31;;;;;;;;;;;;;;;26.27;44.37;102056.41;2612509;36;20002;-52
2022/09/01 11:48:02;;;;;;;;;;;;;;;26.19;43.40;102061.06;2612423;36;19957;-56
2022/09/01 11:50:31;;;;;;;;;;;;;;;26.48;43.68;102047.88;2611050;36;19958;-50
2022/09/01 11:53:01;;;;;;;;;;;;;;;26.56;45.29;102044.03;2610726;36;19954;-48
2022/09/01 11:55:34;;;;;;;;;;;;;;;26.27;43.21;102039.84;2612186;36;19951;-50
2022/09/01 11:58:03;;;;;;;;;;;;;;;26.60;43.96;102039.78;2610076;36;20429;-49
2022/09/01 12:00:32;;;;;;;;;;;;;;;26.33;43.13;102039.81;2609926;31;19947;-51
2022/09/01 12:03:01;;;;;;;;;;;;;;;26.07;45.68;102046.19;2609280;36;20645;-51
2022/09/01 12:05:30;;;;;;;;;;;;;;;25.34;48.95;102047.69;2612244;31;20443;-53
2022/09/01 12:07:59;;;;;;;;;;;;;;;25.65;44.97;102040.78;2609077;36;19981;-50
2022/09/01 12:10:34;;;;;;;;;;;;;;;26.34;46.43;102040.66;2603428;36;19951;-51
2022/09/01 12:13:03;;;;;;;;;;;;;;;26.58;45.02;102036.41;2610035;31;19947;-51
2022/09/01 12:15:33;;;;;;;;;;;;;;;27.02;41.16;102031.25;2610811;36;19950;-51
2022/09/01 12:18:13;;;;;;;;;;;;;;;26.85;44.10;102030.88;2610998;36;19953;-54
2022/09/01 12:20:41;;;;;;;;;;;;;;;27.04;42.28;102027.19;2604157;31;20420;-52
2022/09/01 12:23:18;;;;;;;;;;;;;;;26.51;42.61;102030.88;2610455;36;19946;-52
2022/09/01 12:25:48;;;;;;;;;;;;;;;26.83;41.16;102030.25;2609644;36;19951;-55
2022/09/01 12:28:17;;;;;;;;;;;;;;;26.98;41.76;102013.41;2610357;36;20421;-52
2022/09/01 12:30:45;;;;;;;;;;;;;;;26.56;42.49;102024.72;2610773;36;19953;-52
2022/09/01 12:33:15;;;;;;;;;;;;;;;27.11;41.50;102016.13;2610548;36;19950;-52
2022/09/01 12:35:44;;;;;;;;;;;;;;;27.77;38.89;102014.09;2611159;36;20428;-54
2022/09/01 12:38:33;;;;;;;;;;;;;;;27.69;42.01;102025.41;2610981;31;19986;-50
2022/09/01 12:41:03;;;;;;;;;;;;;;;27.14;40.03;102018.44;2610872;36;20460;-50
2022/09/01 12:43:33;;;;;;;;;;;;;;;27.01;40.03;102013.81;2610439;36;20010;-55
2022/09/01 12:46:03;;;;;;;;;;;;;;;27.38;43.09;102011.31;2610154;36;19966;-56
2022/09/01 12:48:32;;;;;;;;;;;;;;;26.98;42.79;102021.69;2609085;36;20361;-54
2022/09/01 12:51:02;;;;;;;;;;;;;;;26.53;42.49;102026.00;2608174;36;19958;-52
2022/09/01 12:53:31;;;;;;;;;;;;;;;26.76;40.97;102016.44;2609067;36;19946;-53
2022/09/01 12:56:01;;;;;;;;;;;;;;;26.20;41.84;102023.28;2609806;36;19950;-54
2022/09/01 12:58:32;;;;;;;;;;;;;;;26.08;47.92;102013.94;2609644;36;19950;-55
2022/09/01 13:01:03;;;;;;;;;;;;;;;26.70;41.42;102007.09;2610180;36;19962;-52